Smithers Airport
CYYD : now visible

Airfield :











YOU CAN JOIN US ON...

 
LOGIN :

Register | Disclaimer

   EN    FR    IT 

 









Legend :    VFR   Marginal VFR   IFR   Intensive IFR   Very Intensive IFR
Visi :
Ceiling :
>= 8 km
>= 3000ft
5 to 8 km
1000 to 3000 ft
1500m to 5 km
500 to 1000 ft
800 to 1500m
200 to 500 ft
< 800m
< 200 ft
Symbols :   Thunderstorms  Fog  Heavy snow  Heavy precipitations  Wind > 20 kt






- Airport Elevation : 1712 ft
- IATA code : YYD


CYYD - Smithers

CURRENT METAR :
  • 051900Z 15004KT 25SM BKN240 M10/M12 A3008 RMK CS7 SLP223

EXPIRED METARs :
  • 051800Z 14005KT 110V180 25SM FEW055 BKN250 M10/M12 A3009 RMK SC1CS5 SLP224
  • 051700Z 16003KT 25SM FEW055 BKN230 M10/M12 A3007 RMK SC1CI4 SLP220

TAF TAF CYYD
Valid from the 05 at 19:00 until the 06 at 06:00 UTC


051838Z 0519/0606 14005KT P6SM FEW060 BKN250 RMK NXT FCST BY 060100Z



MET'MAP, your aeronautical weather chart ! - Copyright ORBIFLY December 2007 - Disclaimer

ORBIFLY MET'MAP TEAM :

Programming & Development : Alexandra Zaïnal
Concept & original design : Baudouin d'Aumeries
Assistance for programming : Marc-Olivier Méhu
Technical & hardware support : Manuel Goepfert

Contact : metmap@orbifly.com




SOURCES & CREDITS :

   NOAA       Earth
Advisory